Hovedside
METAR-TAF:

METAR-TAF

Lufthavner :

Pointe-à-Pitre, Guadeloupe

breddegrad: 16-16N, lengdegrad: 061-31W, høyde over havet: 11 m

Gjeldene værobservasjon

Denne rapporten ble laget for 28 minutter siden, klokken 22:00 UTC
Vind 8 kt fra Øst
Temperatur 26°C
Luftfuktighet 74%
Trykk 1015 hPa
Sikt 10 km eller mer
Få skyer i en høyde av 3100 ft

METAR: TFFR 212200Z AUTO 09008KT 9999 FEW031 26/21 Q1015 NOSIG

Tid: 18:28 (22:28 UTC)

Varsel

Denne rapporten ble laget for 5 timer og 28 minutter siden, klokken 17:00 UTC
Varsel gyldig fra 21. klokken 18 UTC til 22. klokken 18 UTC
Vind 15 kt fra Øst
Sikt 10 km eller mer
Få skyer i en høyde av 3000 ft
Spredte skyer i en høyde av 4300 ft
Sannsynlighet 30% :
Midlertidig
fra 22. klokken 06 UTC til 22. klokken 18 UTC
Sikt: 4000 m
Spredte skyer i en høyde av 1800 ft, Tårnskyer (cumulus).
regnbyger

TAF: TFFR 211700Z 2118/2218 10015KT 9999 FEW030 SCT043 PROB30 TEMPO 2206/2218 4000 SHRA SCT018TCU

Værobservasjoner og værvarsel for over 4000 flyplasser (METAR- og TAF-rapporter).

Tilgjengelige stasjoner er representert av de røde og gule prikkene på kartet.

Hold musepekeren over prikken for å se navnet på stasjonen.

Klikk så for å se værobservasjoner og -varsler.

For å forandre kartet kan du klikke på den grønne knappen med svart kryss for å zoome inn, på den grønne knappen med strek for å zoome ut, eller på de grønne pilene for å se tilstøtende kart.


METAR-TAF: